Etusivu
METAR-TAF:

METAR-TAF

Lentoasemat :

Whiting_Field_Naval_Air_Station_South_Airport

Milton, Florida, Yhdysvallat

Leveyspiiri: 30-41-50N, Pituuspiiri: 087-01-12W, korkeus merenpinnasta: 54 m

Tämänhetkinen sää

Tämä raportti tehtiin 20 minuuttia sitten, kello 13.30 UTC
Tuuli 11 kn kaakosta
Lämpötila 19°C
Kosteus 100%
Ilmanpaine 1013 hPa
Näkyvyys: 9.7 km
Muutamia pilviä 200 ft:n korkeudessa
Hajanaisia pilviä 1200 ft:n korkeudessa
Hajonneita pilviä 15000 ft:n korkeudessa
Hajonneita pilviä 25000 ft:n korkeudessa
utua

METAR: KNDZ 251330Z 13011KT 6SM BR FEW002 SCT012 BKN150 BKN250 19/19 A2991 RMK AO2 T01940194 $

Aika: 08:50 (13:50 UTC)


TAF: puuttuu

Säähavainnot ja -ennusteet yli 4000 lentoasemalta (METAR- ja TAF-raportit).

Käytössä olevat sääasemat on merkitty karttaan keltaisilla ja punaisilla pisteillä.

Aseta hiiri pisteen päälle nähdäksesi sääaseman nimen.

Klikkaa sitten nähdäksesi säähavainnot ja -ennusteet.

Kartan vaihtaminen: klikkaa mustalla rastilla varustettuja vihreitä pisteitä, niin voit zoomata sisään; viivalla varustettua vihreää pistettä, niin voit zoomata ulos tai vihreitä nuolia, niin pääset viereisille kartoille.


METAR-TAF: